Date,TemperatureHighF,TemperatureAvgF,TemperatureLowF,DewpointHighF,DewpointAvgF,DewpointLowF,HumidityHigh,HumidityAvg,HumidityLow,PressureMaxIn,PressureMinIn,WindSpeedMaxMPH,WindSpeedAvgMPH,GustSpeedMaxMPH,PrecipitationSumIn
2013-1-1,75,67,56,66,63,55,98,88,68,30.03,29.93,6,2,14,0.31
2013-1-2,58,51,43,54,48,42,98,89,71,30.17,29.97,5,1,9,0.01
2013-1-3,44,40,34,42,39,31,98,93,85,30.32,30.16,4,1,9,0.44
2013-1-4,56,42,30,35,31,28,95,70,34,30.39,30.30,5,1,8,0.00
2013-1-5,54,46,36,40,34,29,85,65,41,30.36,30.22,6,1,7,0.00
2013-1-6,52,47,41,46,42,38,95,81,70,30.27,30.18,4,0,5,0.03
2013-1-7,59,45,32,41,36,31,99,74,40,30.32,30.22,8,1,13,0.01
2013-1-8,60,53,44,54,47,38,85,80,75,30.28,30.18,6,2,8,0.00
2013-1-9,67,62,57,63,60,54,96,91,85,30.29,30.20,7,3,10,0.00
2013-1-10,76,68,62,69,65,61,99,90,74,30.29,30.09,9,4,16,0.09
2013-1-11,77,69,61,68,65,60,98,88,72,30.17,30.04,13,2,17,0.01
2013-1-12,78,69,64,66,64,61,98,85,57,30.13,30.01,10,3,15,0.00
2013-1-13,76,70,66,69,67,65,98,91,76,30.03,29.97,7,4,17,0.03
2013-1-14,74,63,50,70,61,49,99,93,78,30.12,30.00,7,1,9,0.02
2013-1-15,75,63,51,71,62,50,99,96,83,30.07,29.92,6,1,7,0.92
2013-1-16,68,54,46,67,54,46,99,98,96,30.02,29.91,6,1,8,1.55
2013-1-17,45,39,36,45,38,34,99,93,86,30.28,29.95,10,2,21,0.06
2013-1-18,59,44,32,40,35,31,98,75,41,30.50,30.28,5,1,10,0.00
2013-1-19,61,47,32,45,38,30,93,73,46,30.41,30.23,5,0,7,0.00
2013-1-20,66,51,38,48,42,38,98,75,45,30.25,30.11,4,0,8,0.00
2013-1-21,66,50,35,45,40,34,98,72,43,30.19,30.09,7,1,11,0.00
2013-1-22,57,44,33,36,29,24,81,60,31,30.35,30.18,5,1,9,0.00
2013-1-23,64,48,32,48,39,29,95,72,44,30.40,30.26,5,0,7,0.00
2013-1-24,71,56,43,57,51,43,99,84,57,30.31,30.21,6,1,10,0.00
2013-1-25,72,60,51,56,53,48,97,79,53,30.28,30.13,5,2,12,0.00
2013-1-26,69,59,51,60,56,49,98,89,72,30.25,30.15,3,0,6,0.00
2013-1-27,71,60,47,54,48,39,92,68,47,30.32,30.24,6,2,10,0.00
2013-1-28,70,61,54,61,57,50,97,86,70,30.32,30.18,8,2,10,0.00
2013-1-29,76,68,61,69,65,60,97,89,75,30.17,29.90,14,4,16,0.03
2013-1-30,74,62,42,71,60,34,98,91,71,30.05,29.63,15,4,24,1.36
2013-1-31,56,44,31,34,30,26,93,63,31,30.28,30.05,7,2,12,0.00
2013-2-1,56,43,33,37,29,20,95,63,25,30.39,30.26,8,1,12,0.00
2013-2-2,66,47,30,47,30,20,93,56,25,30.35,30.15,10,2,11,0.01
2013-2-3,65,52,39,49,38,31,99,66,28,30.22,30.07,10,1,12,0.00
2013-2-4,62,50,38,48,38,33,88,67,37,30.11,29.98,5,1,9,0.00
2013-2-5,67,57,51,58,54,48,99,90,71,30.04,29.96,5,1,8,0.04
2013-2-6,71,56,47,59,53,47,99,90,62,30.15,30.03,5,1,8,0.01
2013-2-7,72,60,56,63,58,54,99,92,70,30.05,29.79,7,1,13,1.31
2013-2-8,71,59,49,59,55,45,97,87,59,30.17,29.92,5,1,12,0.03
2013-2-9,64,49,34,45,39,34,98,70,36,30.26,30.14,6,1,10,0.00
2013-2-10,69,58,49,64,54,41,98,86,71,30.15,29.97,14,6,19,5.57
2013-2-11,65,59,55,64,59,55,99,97,88,30.12,30.01,6,1,10,1.17
2013-2-12,57,55,52,56,55,52,100,98,96,30.06,29.77,6,1,9,0.94
2013-2-13,58,50,41,58,49,40,100,97,85,30.04,29.75,10,1,17,0.28
2013-2-14,57,44,37,44,40,37,99,87,54,30.13,30.01,4,0,6,0.00
2013-2-15,65,50,34,45,39,33,99,70,35,30.15,30.00,6,0,8,0.00
2013-2-16,52,44,30,40,29,17,87,59,29,30.25,30.02,8,2,21,0.00
2013-2-17,55,39,24,29,22,13,93,55,23,30.36,30.24,7,1,8,0.00
2013-2-18,64,49,32,42,36,28,91,64,37,30.31,30.05,11,4,18,0.00
2013-2-19,65,55,43,59,43,27,98,68,26,30.18,29.94,7,2,19,0.44
2013-2-20,60,45,30,33,27,23,87,51,24,30.23,30.07,6,1,12,0.00
2013-2-21,69,53,35,60,39,26,94,61,31,30.11,29.92,12,3,12,0.00
2013-2-22,68,63,58,66,63,58,99,97,89,29.98,29.87,6,2,11,0.85
2013-2-23,58,55,52,58,54,52,100,98,93,29.95,29.79,6,1,12,1.29
2013-2-24,72,58,47,53,48,41,100,73,34,30.00,29.83,5,1,11,0.08
2013-2-25,64,57,52,61,56,50,99,95,82,29.89,29.54,15,5,20,2.61
2013-2-26,64,57,45,63,48,39,99,75,45,29.89,29.48,10,2,14,0.88
2013-2-27,63,49,40,42,40,39,96,74,42,29.99,29.89,5,0,10,0.00
2013-2-28,57,47,37,42,36,31,96,69,39,30.05,29.95,8,1,14,0.00
2013-3-1,54,43,32,34,32,28,93,68,43,30.09,29.98,6,1,12,0.00
2013-3-2,44,37,30,31,28,24,93,70,47,30.13,30.05,11,2,14,0.00
2013-3-3,50,39,32,28,25,20,79,59,32,30.17,30.08,8,2,13,0.00
2013-3-4,66,49,29,47,35,23,92,64,28,30.18,30.00,10,2,17,0.00
2013-3-5,74,56,38,62,50,37,93,81,56,30.09,29.86,10,2,17,0.05
2013-3-6,55,43,36,37,31,27,97,64,38,30.24,30.08,9,2,18,0.00
2013-3-7,66,47,30,35,31,28,93,58,27,30.31,30.18,5,1,8,0.00
2013-3-8,73,54,35,38,32,26,88,49,17,30.30,30.16,5,0,7,0.00
2013-3-9,73,58,44,46,40,31,75,54,32,30.23,30.08,10,2,14,0.00
2013-3-10,75,63,53,56,50,38,83,64,48,30.10,29.98,11,5,18,0.00
2013-3-11,66,55,43,62,54,42,98,94,84,29.98,29.82,11,3,17,1.36
2013-3-12,63,49,36,42,37,34,97,67,35,30.15,29.93,8,2,11,0.00
2013-3-13,64,51,37,39,32,23,92,52,24,30.30,30.16,8,2,14,0.00
2013-3-14,64,48,33,29,26,20,74,45,20,30.41,30.25,6,1,11,0.00
2013-3-15,76,56,38,46,38,28,81,54,28,30.27,30.09,9,1,13,0.00
2013-3-16,78,62,47,54,50,45,98,69,35,30.10,29.95,6,1,13,0.00
2013-3-17,72,61,51,62,58,51,99,89,68,30.03,29.91,5,1,9,0.00
2013-3-18,80,67,58,68,62,57,98,85,60,29.94,29.78,7,2,18,0.26
2013-3-19,76,61,53,58,49,34,98,70,29,30.05,29.80,14,1,15,0.68
2013-3-20,64,54,43,37,32,28,67,45,26,30.12,29.97,6,1,13,0.00
2013-3-21,64,49,36,35,30,21,86,52,20,30.04,29.90,6,1,9,0.00
2013-3-22,56,50,46,42,35,27,72,55,43,29.99,29.90,8,2,11,0.00
2013-3-23,67,58,51,61,52,43,98,81,70,29.91,29.61,12,3,13,1.53
2013-3-24,78,63,43,67,55,34,99,77,45,29.87,29.51,12,3,19,0.16
2013-3-25,58,46,35,33,26,20,73,49,26,30.18,29.88,10,3,17,0.00
2013-3-26,54,41,27,29,26,24,92,60,34,30.33,30.18,6,1,15,0.00
2013-3-27,61,45,27,33,28,24,94,56,26,30.40,30.25,3,0,10,0.00
2013-3-28,71,52,34,39,32,29,89,54,21,30.34,30.21,7,1,8,0.00
2013-3-29,76,58,38,49,39,33,94,56,23,30.32,30.16,8,1,12,0.00
2013-3-30,77,63,49,57,52,48,99,71,41,30.20,30.03,8,1,13,0.00
2013-3-31,82,67,56,64,59,55,99,79,45,30.05,29.86,6,1,12,0.05
2013-4-1,72,62,55,61,58,54,99,86,54,30.04,29.89,4,1,8,0.01
2013-4-2,80,63,49,54,49,45,96,64,30,30.13,30.00,7,1,10,0.00
2013-4-3,58,56,51,57,51,43,96,84,61,30.10,29.84,9,1,24,0.36
2013-4-4,65,58,54,62,57,53,98,96,87,29.96,29.85,3,1,7,0.02
2013-4-5,66,54,48,52,49,47,99,86,55,30.08,29.90,6,1,11,0.07
2013-4-6,77,58,42,49,45,41,98,69,31,30.16,30.06,7,1,9,0.00
2013-4-7,79,63,46,60,54,45,98,74,43,30.15,30.03,6,2,12,0.00
2013-4-8,81,68,57,60,58,56,98,73,45,30.10,30.02,8,2,13,0.00
2013-4-9,86,73,60,62,59,57,92,65,42,30.12,30.00,14,2,14,0.00
2013-4-10,86,72,59,64,60,57,93,67,41,30.07,29.90,13,3,14,0.00
2013-4-11,79,69,61,73,67,57,98,92,78,29.91,29.60,14,3,19,2.35
2013-4-12,72,61,51,64,51,45,97,72,40,29.96,29.74,6,2,14,0.00
2013-4-13,81,63,45,53,46,41,97,62,25,30.04,29.93,4,0,8,0.00
2013-4-14,61,58,56,60,56,50,99,92,66,30.00,29.67,16,2,19,2.38
2013-4-15,86,70,58,72,65,58,99,85,59,30.06,29.86,5,1,8,0.00
2013-4-16,87,74,65,73,68,64,97,82,59,30.14,30.05,6,2,12,0.00
2013-4-17,83,74,66,71,68,64,98,84,65,30.16,30.03,7,2,10,0.00
2013-4-18,84,73,63,70,66,62,96,82,58,30.03,29.88,11,3,15,0.00
2013-4-19,73,58,45,71,56,45,99,94,87,30.12,29.81,10,2,16,0.41
2013-4-20,68,52,37,46,42,37,99,72,36,30.24,30.12,8,1,10,0.01
2013-4-21,75,58,42,51,44,39,90,65,37,30.22,30.12,7,1,12,0.00
2013-4-22,70,60,52,60,54,45,97,79,68,30.18,30.08,7,1,12,0.00
2013-4-23,77,65,55,63,58,54,97,79,54,30.14,30.03,8,2,13,0.00
2013-4-24,78,66,56,70,63,55,99,91,65,30.15,30.04,6,1,9,0.03
2013-4-25,76,63,52,61,53,41,97,73,29,30.27,30.13,5,1,10,0.00
2013-4-26,85,64,46,50,44,40,81,52,23,30.31,30.20,6,1,10,0.00
2013-4-27,84,67,52,66,60,50,96,78,49,30.23,30.06,9,2,14,0.00
2013-4-28,81,71,64,69,65,61,99,82,51,30.11,29.95,8,1,10,0.00
2013-4-29,84,70,62,66,62,59,97,80,45,30.00,29.89,5,1,10,0.00
2013-4-30,82,71,61,67,65,60,99,83,57,29.99,29.91,7,2,10,0.00
2013-5-1,68,66,64,65,64,62,97,94,89,30.02,29.91,7,3,17,0.87
2013-5-2,74,67,62,68,64,59,95,89,77,30.03,29.93,9,2,12,0.03
2013-5-3,70,65,52,65,62,51,98,90,77,29.96,29.82,11,3,20,0.91
2013-5-4,66,54,46,50,44,39,98,74,38,29.93,29.85,5,2,16,0.58
2013-5-5,72,55,41,56,45,40,98,73,39,29.95,29.81,13,2,16,0.00
2013-5-6,66,54,41,55,49,41,99,84,57,29.97,29.90,8,1,14,0.02
2013-5-7,75,62,51,61,56,51,99,83,51,30.03,29.91,6,1,10,0.00
2013-5-8,82,68,53,62,58,52,99,76,46,30.10,30.00,3,0,10,0.00
2013-5-9,85,71,57,67,62,57,99,75,41,30.14,30.04,5,1,7,0.00
2013-5-10,80,69,60,68,64,59,99,85,61,30.12,29.93,5,1,14,0.00
2013-5-11,77,68,60,68,65,60,99,90,71,30.03,29.94,5,0,8,0.01
2013-5-12,79,68,56,63,58,49,99,73,46,30.10,29.97,5,1,10,0.01
2013-5-13,78,62,44,49,45,37,96,58,25,30.26,30.10,6,1,8,0.00
2013-5-14,86,67,48,58,52,47,95,63,33,30.27,30.14,4,0,7,0.00
2013-5-15,87,70,55,63,58,54,98,68,39,30.22,30.04,4,0,9,0.00
2013-5-16,85,72,60,67,62,54,92,72,47,30.08,29.96,5,1,11,0.00
2013-5-17,85,74,65,70,67,63,99,81,56,30.08,29.98,7,1,9,0.00
2013-5-18,83,75,68,74,70,67,98,87,70,30.11,30.00,5,1,8,0.02
2013-5-19,87,75,66,73,70,65,99,85,59,30.07,29.98,3,0,7,0.00
2013-5-20,90,77,67,73,70,65,99,79,52,30.07,29.95,6,1,8,0.00
2013-5-21,92,77,67,72,68,65,98,77,47,30.02,29.87,5,1,9,0.00
2013-5-22,87,76,65,73,69,65,99,83,54,30.00,29.88,10,0,12,0.00
2013-5-23,91,77,64,72,65,60,99,72,36,30.03,29.93,6,1,10,0.00
2013-5-24,87,75,60,65,59,51,96,63,32,30.17,30.00,5,1,12,0.00
2013-5-25,88,70,51,62,51,45,83,56,24,30.25,30.15,6,1,10,0.00
2013-5-26,92,74,58,66,59,54,94,64,28,30.22,30.11,7,1,8,0.00
2013-5-27,91,77,66,72,61,55,99,64,33,30.19,30.05,9,1,11,0.00
2013-5-28,90,76,61,69,65,58,94,70,45,30.12,30.03,12,2,12,0.00
2013-5-29,91,75,65,73,69,63,97,82,46,30.10,30.02,12,2,14,0.02
2013-5-30,89,78,70,72,70,67,96,77,49,30.12,30.01,11,3,18,0.01
2013-5-31,88,78,71,74,70,68,96,79,55,30.11,30.00,8,2,12,0.01
2013-6-1,87,77,70,76,72,69,98,87,64,30.03,29.95,8,2,12,0.14
2013-6-2,92,76,69,75,71,68,99,88,51,29.99,29.85,6,1,10,0.78
2013-6-3,88,77,68,76,72,67,99,86,63,29.95,29.86,7,0,9,0.00
2013-6-4,94,79,70,76,72,68,99,81,42,29.97,29.89,5,1,9,0.00
2013-6-5,86,77,68,77,72,67,99,87,69,29.99,29.86,6,1,14,0.23
2013-6-6,86,75,66,74,71,66,99,88,66,29.90,29.71,5,1,7,0.03
2013-6-7,84,73,66,72,69,66,99,87,61,29.91,29.73,6,1,9,0.01
2013-6-8,89,75,63,79,70,63,99,85,58,30.05,29.90,6,1,9,0.16
2013-6-9,77,72,69,73,71,69,98,96,85,30.06,29.95,8,1,9,0.89
2013-6-10,84,76,71,76,73,70,99,92,76,30.08,29.98,5,1,8,0.08
2013-6-11,93,81,72,78,74,72,99,82,52,30.10,30.00,3,0,8,0.00
2013-6-12,95,83,73,78,74,72,99,79,50,30.09,29.99,3,0,6,0.00
2013-6-13,95,83,72,77,73,70,99,75,45,30.02,29.84,7,1,11,0.00
2013-6-14,91,79,69,78,72,65,99,80,49,29.95,29.84,3,0,7,0.42
2013-6-15,91,80,67,75,70,64,93,74,49,30.04,29.94,6,1,10,0.00
2013-6-16,93,80,74,77,74,72,98,83,54,30.08,29.98,6,2,9,0.17
2013-6-17,87,77,70,80,75,69,99,94,76,30.02,29.94,4,1,11,0.89
2013-6-18,92,78,71,78,74,71,99,86,54,30.00,29.88,4,1,13,0.16
2013-6-19,86,76,70,77,73,70,99,90,63,30.03,29.93,4,0,5,0.36
2013-6-20,90,78,68,75,72,68,99,81,56,30.11,30.01,7,1,9,0.00
2013-6-21,90,78,70,75,71,68,97,80,56,30.15,30.07,7,1,10,0.00
2013-6-22,91,79,67,74,70,66,97,77,50,30.14,30.02,6,1,8,0.00
2013-6-23,85,76,70,75,73,69,99,91,69,30.13,30.05,5,1,9,0.00
2013-6-24,94,78,71,77,73,70,99,84,51,30.18,30.09,5,1,6,0.01
2013-6-25,91,78,69,77,73,69,99,85,58,30.15,30.02,4,1,10,0.02
2013-6-26,92,81,70,77,74,70,99,81,54,30.10,29.97,3,0,5,0.01
2013-6-27,94,82,72,79,75,71,99,82,53,30.02,29.88,6,0,7,0.00
2013-6-28,94,79,70,82,74,69,98,88,59,29.91,29.75,6,1,11,1.24
2013-6-29,92,77,70,78,72,69,99,87,54,29.78,29.68,5,1,8,0.43
2013-6-30,90,79,70,76,72,69,99,82,51,29.78,29.70,3,0,6,0.00
2013-7-1,90,78,68,75,71,68,99,81,53,29.90,29.76,7,0,7,0.03
2013-7-2,91,78,68,75,71,66,99,81,46,30.02,29.88,6,0,10,0.00
2013-7-3,78,73,70,75,72,69,98,95,85,30.06,29.98,8,2,14,0.21
2013-7-4,76,73,70,73,72,69,99,96,87,30.06,29.96,13,4,17,1.76
2013-7-5,75,72,69,73,71,69,99,97,92,30.11,30.02,7,3,11,1.05
2013-7-6,80,74,69,76,73,69,99,97,88,30.08,30.02,5,1,6,0.89
2013-7-7,84,75,72,77,73,71,100,96,78,30.13,30.05,6,1,9,0.36
2013-7-8,89,77,72,78,74,72,100,91,70,30.18,30.11,5,1,11,0.08
2013-7-9,92,79,70,79,75,69,100,88,58,30.19,30.07,5,0,7,0.00
2013-7-10,88,77,72,80,75,72,99,94,76,30.10,29.96,3,0,8,0.39
2013-7-11,84,76,72,77,74,72,99,93,76,30.00,29.88,5,0,9,0.79
2013-7-12,92,78,71,80,74,71,99,88,58,29.93,29.84,4,0,5,0.00
2013-7-13,86,76,69,78,72,66,99,88,69,29.99,29.87,4,1,10,0.00
2013-7-14,83,75,68,77,72,67,99,92,77,30.06,29.95,7,1,12,0.48
2013-7-15,87,77,71,75,73,70,99,89,62,30.17,30.05,8,2,14,0.11
2013-7-16,90,79,72,76,73,71,99,84,58,30.21,30.14,13,2,17,0.13
2013-7-17,94,81,71,78,74,70,100,81,53,30.24,30.10,7,1,9,0.01
2013-7-18,92,78,69,76,72,68,98,82,54,30.15,30.01,4,0,9,0.00
2013-7-19,91,76,69,75,72,68,99,89,57,30.11,29.98,7,0,15,0.34
2013-7-20,86,77,72,78,75,71,99,93,75,30.04,29.93,5,1,7,0.08
2013-7-21,86,77,72,80,75,71,99,92,77,30.06,29.98,4,1,16,0.53
2013-7-22,89,76,72,79,74,71,100,94,69,30.06,29.99,4,0,11,1.92
2013-7-23,90,76,69,81,74,69,99,92,69,30.03,29.90,6,1,22,1.00
2013-7-24,87,74,68,80,73,68,100,96,74,29.93,29.86,9,0,17,1.56
2013-7-25,91,79,70,79,74,69,100,85,60,30.00,29.86,3,0,6,0.00
2013-7-26,91,79,68,76,72,68,99,81,52,30.05,29.96,5,0,7,0.00
2013-7-27,87,75,71,78,72,70,99,92,67,29.97,29.92,4,0,7,0.39
2013-7-28,91,79,71,78,74,70,99,88,64,30.02,29.90,6,1,8,0.30
2013-7-29,92,78,70,80,74,70,99,89,61,30.13,29.99,3,0,6,0.01
2013-7-30,95,83,74,80,76,74,99,83,55,30.17,30.06,5,0,6,0.00
2013-7-31,88,79,73,80,76,73,99,91,73,30.10,29.99,4,1,7,0.20
2013-8-1,88,78,69,80,75,69,100,93,73,30.04,29.92,6,1,15,1.46
2013-8-2,94,81,71,79,75,71,100,84,54,30.02,29.93,4,0,6,0.01
2013-8-3,93,81,72,78,75,72,99,83,54,30.07,29.98,3,0,6,0.00
2013-8-4,93,81,73,81,76,73,99,86,60,30.06,29.96,5,1,12,0.00
2013-8-5,93,82,72,79,75,72,99,83,55,30.04,29.95,2,0,7,0.00
2013-8-6,94,80,72,80,75,71,99,85,58,30.03,29.91,4,0,15,0.69
2013-8-7,94,81,70,81,75,69,99,83,56,30.00,29.91,6,1,6,0.01
2013-8-8,92,79,73,81,76,72,99,90,63,30.00,29.93,6,1,14,2.14
2013-8-9,92,79,73,83,76,73,100,91,60,30.07,29.97,5,1,8,0.74
2013-8-10,92,78,72,80,74,71,100,90,59,30.12,30.04,6,1,13,0.19
2013-8-11,92,79,71,82,75,71,100,89,59,30.16,30.07,8,0,16,1.17
2013-8-12,94,78,72,80,74,72,100,91,57,30.13,30.02,5,0,13,1.36
2013-8-13,90,77,71,79,75,71,100,92,69,30.04,29.93,6,0,8,0.01
2013-8-14,86,76,72,79,74,72,99,94,72,29.96,29.88,3,0,5,1.03
2013-8-15,86,77,73,78,74,72,99,93,72,29.98,29.90,3,0,7,0.09
2013-8-16,83,74,69,75,72,69,99,92,74,30.03,29.94,3,0,6,0.01
2013-8-17,72,70,69,72,70,69,99,98,96,30.04,29.97,7,1,9,0.86
2013-8-18,76,72,69,75,71,69,100,98,95,30.08,30.02,10,2,14,0.64
2013-8-19,92,77,69,79,74,69,100,90,58,30.07,29.97,6,2,7,0.07
2013-8-20,88,75,70,79,73,70,100,94,72,30.12,30.00,6,1,8,0.29
2013-8-21,90,77,70,79,73,69,100,91,60,30.16,30.07,3,0,5,0.04
2013-8-22,89,78,70,78,73,70,99,86,64,30.12,29.99,6,1,10,0.01
2013-8-23,88,78,70,78,73,70,99,87,64,30.05,29.96,4,1,7,0.00
2013-8-24,89,78,69,78,73,68,99,85,63,30.14,30.02,4,1,13,0.87
2013-8-25,85,75,69,76,72,68,99,90,72,30.22,30.14,8,1,20,0.19
2013-8-26,86,74,64,69,65,62,94,75,48,30.23,30.12,6,1,8,0.00
2013-8-27,87,74,64,71,66,62,97,78,50,30.14,30.03,3,0,6,0.00
2013-8-28,90,76,66,73,69,65,97,80,50,30.09,30.00,4,0,5,0.00
2013-8-29,92,78,66,77,71,66,98,82,54,30.07,29.96,3,0,6,0.00
2013-8-30,92,80,71,79,74,70,99,84,58,30.02,29.90,4,1,7,0.00
2013-8-31,91,79,74,80,75,73,99,89,64,29.95,29.87,6,0,9,0.00
2013-9-1,94,79,71,79,74,71,100,86,59,29.94,29.85,4,0,10,0.00
2013-9-2,89,78,71,81,75,70,99,91,72,29.98,29.88,4,0,6,0.28
2013-9-3,89,76,70,80,73,70,100,93,72,29.99,29.90,10,0,13,0.49
2013-9-4,94,79,68,78,73,68,100,84,58,30.08,29.97,3,0,9,0.01
2013-9-5,92,80,70,76,73,70,99,82,52,30.13,30.03,5,0,6,0.00
2013-9-6,91,78,68,74,70,67,98,80,46,30.11,30.00,5,0,6,0.00
2013-9-7,92,77,68,76,71,66,98,84,54,30.07,29.96,4,0,9,0.03
2013-9-8,92,79,68,77,72,67,100,81,48,30.01,29.93,3,0,4,0.01
2013-9-9,93,80,68,76,72,68,99,78,49,30.06,29.96,4,0,5,0.00
2013-9-10,89,79,72,75,72,69,98,80,51,30.15,30.04,6,1,11,0.00
2013-9-11,90,78,70,74,71,69,96,79,52,30.16,30.05,8,1,11,0.00
2013-9-12,93,79,69,74,70,66,98,75,42,30.06,29.91,4,0,7,0.00
2013-9-13,92,78,67,75,70,67,99,80,46,29.93,29.81,4,0,6,0.02
2013-9-14,88,76,65,72,64,62,96,71,43,30.01,29.87,3,0,6,0.00
2013-9-15,93,78,64,75,68,61,92,73,49,30.07,29.99,4,1,7,0.00
2013-9-16,93,80,71,77,73,70,99,81,52,30.10,30.00,4,0,7,0.00
2013-9-17,93,79,67,75,72,65,98,79,51,30.09,29.98,8,1,11,0.00
2013-9-18,85,76,70,73,71,69,96,84,66,30.13,30.04,9,2,11,0.00
2013-9-19,88,77,67,72,68,65,93,76,53,30.11,30.01,7,2,10,0.00
2013-9-20,90,77,67,75,70,65,96,81,54,30.04,29.87,8,2,10,0.00
2013-9-21,78,74,71,76,73,71,99,97,91,29.88,29.73,5,1,7,2.18
2013-9-22,80,72,67,72,69,66,99,90,71,29.82,29.75,3,0,6,0.06
2013-9-23,87,74,68,77,72,67,99,93,71,29.92,29.80,6,1,7,0.17
2013-9-24,78,74,73,75,73,72,99,97,91,29.92,29.78,8,2,14,0.69
2013-9-25,86,76,69,76,73,68,99,90,65,29.82,29.74,5,0,10,0.19
2013-9-26,81,70,66,71,68,66,100,94,71,29.97,29.80,3,0,6,0.01
2013-9-27,83,70,61,68,64,60,100,82,51,30.07,29.96,5,1,9,0.01
2013-9-28,82,69,58,65,62,57,95,80,54,30.12,30.03,8,1,10,0.00
2013-9-29,81,68,56,68,62,55,97,83,57,30.08,29.97,7,1,10,0.00
2013-9-30,81,71,64,72,67,62,95,87,69,30.02,29.94,3,0,5,0.00
2013-10-1,86,73,67,72,68,65,96,85,54,30.10,30.00,6,1,9,0.00
2013-10-2,82,73,66,71,68,65,97,85,62,30.10,30.03,5,1,9,0.00
2013-10-3,88,75,66,72,68,64,97,81,54,30.09,30.00,8,1,11,0.00
2013-10-4,89,76,67,73,70,67,99,83,54,30.09,30.01,7,1,11,0.00
2013-10-5,89,78,70,76,72,69,99,84,56,30.07,29.95,6,1,11,0.00
2013-10-6,78,72,69,74,71,69,99,95,85,29.96,29.82,7,2,11,0.47
2013-10-7,76,66,58,69,60,55,99,83,59,29.97,29.83,4,1,12,0.19
2013-10-8,79,66,51,70,61,51,97,85,63,30.02,29.93,3,0,7,0.00
2013-10-9,69,64,60,65,62,60,99,93,84,30.13,30.02,7,1,8,0.00
2013-10-10,83,68,56,69,63,56,100,85,54,30.12,30.01,4,0,7,0.01
2013-10-11,84,70,58,70,63,58,99,82,51,30.07,29.97,3,0,5,0.00
2013-10-12,85,71,60,71,64,60,99,81,48,30.09,30.00,3,0,7,0.00
2013-10-13,85,70,60,67,63,59,97,80,48,30.17,30.06,5,1,9,0.00
2013-10-14,84,70,61,68,63,60,97,80,54,30.14,30.03,6,1,9,0.00
2013-10-15,77,66,59,67,62,58,99,90,67,30.08,29.98,4,1,7,0.00
2013-10-16,84,69,58,68,63,58,99,83,52,30.04,29.92,4,0,5,0.01
2013-10-17,83,70,64,75,68,63,99,93,76,29.96,29.89,5,1,8,0.05
2013-10-18,75,67,63,67,64,61,97,89,68,30.02,29.92,2,0,6,0.00
2013-10-19,67,62,58,65,60,57,99,95,89,30.02,29.92,3,0,5,0.10
2013-10-20,75,61,54,61,57,53,99,87,57,30.05,29.97,4,0,6,0.01
2013-10-21,73,62,54,63,58,52,95,86,66,30.07,29.98,2,0,5,0.00
2013-10-22,78,66,59,64,60,55,98,82,54,29.98,29.86,3,0,4,0.01
2013-10-23,71,59,48,55,47,40,98,69,34,30.11,29.93,8,1,11,0.00
2013-10-24,76,57,42,53,47,41,96,71,39,30.21,30.10,4,0,7,0.00
2013-10-25,64,53,40,50,41,33,94,68,32,30.39,30.18,5,1,10,0.00
2013-10-26,70,52,36,44,38,33,88,63,27,30.31,30.16,5,0,7,0.00
2013-10-27,74,58,44,59,50,42,96,76,46,30.18,30.09,4,0,7,0.00
2013-10-28,79,64,52,60,56,51,98,79,48,30.22,30.10,4,1,8,0.00
2013-10-29,80,64,52,61,57,52,99,80,47,30.28,30.19,6,1,10,0.00
2013-10-30,80,65,54,63,59,54,99,82,51,30.25,30.10,7,1,11,0.00
2013-10-31,80,70,61,72,67,60,98,90,71,30.10,29.88,8,3,13,0.00
2013-11-1,72,67,56,72,66,54,99,97,91,29.88,29.77,5,1,10,0.79
2013-11-2,75,60,51,59,50,44,96,74,43,30.10,29.87,6,1,10,0.01
2013-11-3,68,54,41,47,43,40,96,71,37,30.23,30.10,6,1,13,0.00
2013-11-4,72,58,44,53,48,42,91,71,48,30.30,30.20,7,2,13,0.00
2013-11-5,74,61,49,58,50,42,76,68,54,30.31,30.18,14,3,15,0.00
2013-11-6,77,65,56,67,60,49,97,84,69,30.20,30.07,7,2,12,0.00
2013-11-7,64,57,44,64,54,40,99,91,76,30.24,30.04,5,1,12,0.19
2013-11-8,64,49,39,41,38,35,91,69,37,30.30,30.19,5,1,11,0.00
2013-11-9,69,56,43,57,48,39,91,77,58,30.27,30.17,6,1,10,0.00
2013-11-10,75,60,52,58,52,43,96,77,51,30.27,30.17,3,0,8,0.00
2013-11-11,75,59,48,50,46,42,88,65,31,30.24,30.13,4,0,6,0.00
2013-11-12,73,53,36,51,42,23,95,68,43,30.41,30.14,9,2,16,0.00
2013-11-13,54,39,29,27,23,20,75,54,28,30.50,30.40,6,1,11,0.00
2013-11-14,63,47,31,45,35,23,83,65,47,30.41,30.20,8,1,8,0.00
2013-11-15,65,58,52,60,55,46,98,89,77,30.20,30.04,9,2,12,0.08
2013-11-16,72,65,59,67,62,58,99,92,78,30.14,30.02,8,2,9,0.00
2013-11-17,78,71,66,74,69,65,99,95,84,30.03,29.91,7,2,11,0.02
2013-11-18,81,70,53,72,58,39,99,69,36,30.06,29.93,4,1,9,0.11
2013-11-19,64,52,43,41,39,37,81,64,40,30.12,30.01,5,1,12,0.00
2013-11-20,66,54,41,53,46,37,86,75,61,30.18,30.05,7,2,12,0.00
2013-11-21,66,60,55,61,54,47,95,82,76,30.26,30.18,5,2,11,0.00
2013-11-22,70,63,57,66,61,56,97,93,84,30.26,30.13,7,1,8,0.00
2013-11-23,66,59,47,63,56,36,97,89,66,30.25,30.14,7,1,11,0.00
2013-11-24,55,44,36,36,28,24,70,56,32,30.39,30.25,8,2,13,0.00
2013-11-25,55,48,38,52,37,25,94,66,57,30.32,29.95,10,4,14,0.04
2013-11-26,63,52,44,63,52,43,99,98,93,29.95,29.68,12,3,17,1.08
2013-11-27,46,38,28,43,32,24,98,80,51,30.32,29.82,7,2,16,0.22
2013-11-28,50,36,23,28,24,21,91,66,33,30.46,30.32,3,0,7,0.00
2013-11-29,60,43,28,32,28,24,92,58,30,30.51,30.40,5,0,8,0.00
2013-11-30,65,48,35,44,37,27,88,66,39,30.45,30.26,6,1,7,0.00
2013-12-1,64,52,41,51,46,40,95,81,58,30.26,30.01,3,0,5,0.00
2013-12-2,70,57,45,55,51,44,98,81,52,30.01,29.79,3,1,7,0.10
2013-12-3,76,65,55,67,61,54,99,87,61,29.87,29.76,5,1,12,0.48
2013-12-4,77,67,62,71,67,62,100,97,80,29.99,29.87,5,2,11,0.53
2013-12-5,81,73,68,74,71,68,100,93,76,30.06,29.98,11,2,15,0.00
2013-12-6,81,72,55,72,69,54,99,90,68,30.12,29.99,8,2,16,0.23
2013-12-7,54,45,44,53,45,43,98,97,95,30.29,30.13,4,1,9,0.12
2013-12-8,71,59,46,69,58,44,100,97,90,30.21,30.05,6,2,10,0.01
2013-12-9,73,65,57,70,63,56,99,94,85,30.12,30.02,3,1,8,0.00
2013-12-10,61,45,33,61,43,32,100,93,77,30.33,30.00,7,2,20,0.13
2013-12-11,61,45,31,45,38,30,98,79,53,30.38,30.29,5,0,7,0.00
2013-12-12,56,43,29,39,30,24,90,65,31,30.48,30.36,4,1,8,0.00
2013-12-13,55,42,28,43,32,22,84,68,43,30.36,30.07,5,1,9,0.00
2013-12-14,72,60,50,69,58,43,98,92,79,30.05,29.81,12,2,12,0.21
2013-12-15,52,41,32,51,38,31,97,87,76,30.25,29.92,7,2,13,0.00
2013-12-16,59,42,29,39,34,28,98,76,38,30.32,30.23,4,0,7,0.00
2013-12-17,64,46,32,41,37,31,97,73,36,30.31,30.18,7,0,8,0.00
2013-12-18,62,47,36,41,36,33,96,69,34,30.37,30.24,5,0,7,0.00
2013-12-19,65,51,38,48,40,33,88,69,43,30.29,30.13,7,2,11,0.00
2013-12-20,72,60,50,65,56,42,98,86,72,30.16,30.04,8,3,12,0.00
2013-12-21,75,70,63,71,69,62,99,95,86,30.03,29.88,13,5,20,0.08
2013-12-22,73,63,54,71,63,54,99,98,92,30.10,29.88,9,2,20,2.64
2013-12-23,54,48,36,54,46,34,100,94,85,30.35,30.05,8,1,11,0.08
2013-12-24,50,38,27,34,30,26,97,77,47,30.46,30.34,6,1,13,0.00
2013-12-25,52,38,25,37,30,23,93,77,45,30.38,30.25,4,0,7,0.00
2013-12-26,54,43,34,41,37,33,95,81,57,30.33,30.25,4,0,8,0.00
2013-12-27,58,47,39,41,38,34,89,72,47,30.38,30.28,5,1,8,0.00
2013-12-28,48,45,43,48,44,38,99,95,70,30.28,29.87,12,2,12,1.71
2013-12-29,52,46,39,49,45,39,99,98,88,30.10,29.87,4,1,8,0.00
2013-12-30,55,46,38,51,45,38,100,97,84,30.24,30.09,3,0,3,0.01
2013-12-31,48,43,40,47,41,39,99,93,83,30.39,30.25,3,1,8,0.01
2014-1-1,54,48,42,50,46,41,98,94,84,30.32,30.06,4,1,6,0.11
2014-1-2,57,47,31,55,45,26,100,91,76,30.25,29.89,8,2,17,0.45